Time;durP1;ratioP1;P1;durP2;ratioP2;P2;SDS_P1;SDS_P2;PMS_P1;PMS_P2;Temp;Humidity;BMP_temperature;BMP_pressure;BME280_temperature;BME280_humidity;BME280_pressure;Samples;Min_cycle;Max_cycle;Signal;HPM_P1;HPM_P2
2022/03/15 00:00:24;;;;;;;16.38;8.35;;;3.60;99.90;;;;;;5095671;28;20123;-75
2022/03/15 00:02:50;;;;;;;22.30;8.55;;;3.60;99.90;;;;;;5095861;28;20434;-76
2022/03/15 00:05:18;;;;;;;20.05;8.50;;;3.60;99.90;;;;;;5095478;28;20085;-74
2022/03/15 00:07:44;;;;;;;24.23;8.95;;;3.70;99.90;;;;;;5095625;28;20044;-74
2022/03/15 00:10:15;;;;;;;24.90;8.13;;;3.70;99.90;;;;;;5094825;28;20119;-74
2022/03/15 00:12:44;;;;;;;16.85;8.52;;;3.70;99.90;;;;;;5095374;28;20412;-73
2022/03/15 00:15:11;;;;;;;18.38;8.38;;;3.70;99.90;;;;;;5094301;28;20052;-74
2022/03/15 00:17:38;;;;;;;16.05;8.63;;;3.40;99.90;;;;;;5094475;28;20541;-74
2022/03/15 00:20:06;;;;;;;18.40;8.88;;;3.70;99.90;;;;;;5094372;28;20051;-74
2022/03/15 00:22:37;;;;;;;18.40;8.82;;;3.70;99.90;;;;;;5095289;28;20052;-75
2022/03/15 00:25:05;;;;;;;15.38;8.40;;;3.70;99.90;;;;;;5095396;28;20040;-75
2022/03/15 00:27:32;;;;;;;19.00;8.82;;;3.70;99.90;;;;;;5095529;28;20369;-74
2022/03/15 00:29:58;;;;;;;16.23;8.70;;;3.80;99.90;;;;;;5095614;28;20402;-74
2022/03/15 00:32:25;;;;;;;22.45;9.50;;;3.80;99.90;;;;;;5095287;28;20052;-74
2022/03/15 00:34:51;;;;;;;26.27;9.65;;;3.80;99.90;;;;;;5094246;28;20047;-74
2022/03/15 00:37:17;;;;;;;25.05;9.43;;;3.80;99.90;;;;;;5095204;28;20044;-75
2022/03/15 00:39:43;;;;;;;16.65;9.10;;;3.90;99.90;;;;;;5095106;28;20044;-74
2022/03/15 00:42:09;;;;;;;19.45;8.63;;;3.90;99.90;;;;;;5095068;28;20054;-74
2022/03/15 00:44:35;;;;;;;20.38;9.07;;;3.90;99.90;;;;;;5093701;28;20044;-74
2022/03/15 00:47:01;;;;;;;17.88;9.13;;;3.90;99.90;;;;;;5077514;28;20048;-74
2022/03/15 00:49:27;;;;;;;24.23;10.63;;;3.90;99.90;;;;;;5094884;28;20044;-74
2022/03/15 00:51:52;;;;;;;21.88;9.15;;;3.90;99.90;;;;;;5094787;28;20130;-74
2022/03/15 00:54:18;;;;;;;23.08;9.13;;;3.90;99.90;;;;;;5093822;28;20044;-74
2022/03/15 00:56:44;;;;;;;23.38;9.48;;;3.90;99.90;;;;;;5094711;28;20044;-73
2022/03/15 00:59:09;;;;;;;25.60;9.15;;;3.90;99.90;;;;;;5094744;28;20040;-73
2022/03/15 01:01:36;;;;;;;21.48;9.43;;;3.90;99.90;;;;;;5093809;28;20032;-74
2022/03/15 01:04:02;;;;;;;20.58;9.07;;;3.80;99.90;;;;;;5094503;28;20047;-74
2022/03/15 01:06:28;;;;;;;22.15;9.20;;;3.40;99.90;;;;;;5094783;28;20039;-74
2022/03/15 01:08:54;;;;;;;17.63;8.93;;;3.80;99.90;;;;;;5094547;28;20036;-74
2022/03/15 01:11:19;;;;;;;18.27;8.60;;;3.70;99.90;;;;;;5094525;28;20056;-74
2022/03/15 01:13:45;;;;;;;16.52;8.38;;;3.70;99.90;;;;;;5094270;28;20492;-74
2022/03/15 01:16:11;;;;;;;19.15;8.73;;;3.60;99.90;;;;;;5094533;28;20044;-74
2022/03/15 01:18:38;;;;;;;24.15;9.65;;;3.60;99.90;;;;;;5093039;28;20046;-74
2022/03/15 01:21:04;;;;;;;;;;;3.60;99.90;;;;;;5094776;28;20044;-74
2022/03/15 01:23:30;;;;;;;23.13;8.50;;;3.60;99.90;;;;;;5094335;28;20335;-74
2022/03/15 01:25:56;;;;;;;19.23;8.50;;;3.60;99.90;;;;;;5093148;28;20052;-74
2022/03/15 01:28:22;;;;;;;18.95;8.63;;;3.50;99.90;;;;;;5094050;28;20105;-73
2022/03/15 01:30:48;;;;;;;17.23;8.75;;;3.50;99.90;;;;;;5094268;28;20059;-74
2022/03/15 01:33:13;;;;;;;21.42;8.88;;;3.40;99.90;;;;;;5093234;28;20492;-74
2022/03/15 01:35:39;;;;;;;20.42;9.38;;;3.40;99.90;;;;;;5094180;28;20062;-74
2022/03/15 01:38:05;;;;;;;19.13;9.27;;;3.40;99.90;;;;;;5092925;28;20078;-74
2022/03/15 01:40:30;;;;;;;17.33;8.82;;;3.30;99.90;;;;;;5092864;28;20048;-74
2022/03/15 01:42:56;;;;;;;17.75;8.55;;;3.30;99.90;;;;;;5076333;28;20392;-74
2022/03/15 01:45:31;;;;;;;17.20;8.55;;;3.20;99.90;;;;;;5093756;28;20155;-74
2022/03/15 01:47:57;;;;;;;17.88;8.35;;;3.20;99.90;;;;;;5093975;28;20044;-74
2022/03/15 01:50:23;;;;;;;18.55;8.65;;;3.20;99.90;;;;;;5093817;28;20055;-73
2022/03/15 01:52:48;;;;;;;20.30;9.18;;;3.10;99.90;;;;;;5093915;28;20044;-74
2022/03/15 01:55:14;;;;;;;20.95;9.45;;;3.10;99.90;;;;;;5093707;28;20043;-74
2022/03/15 01:57:40;;;;;;;17.48;8.73;;;3.10;99.90;;;;;;5092972;28;20036;-74
2022/03/15 02:00:06;;;;;;;19.95;9.52;;;3.10;99.90;;;;;;5092693;28;20051;-74
2022/03/15 02:02:32;;;;;;;20.33;8.93;;;3.10;99.90;;;;;;5093562;28;20070;-74
2022/03/15 02:04:58;;;;;;;21.20;8.70;;;3.00;99.90;;;;;;5093996;28;20481;-73
2022/03/15 02:07:24;;;;;;;18.05;8.15;;;3.00;99.90;;;;;;5092578;28;20044;-74
2022/03/15 02:09:51;;;;;;;18.67;9.75;;;3.00;99.90;;;;;;5093680;28;20545;-75
2022/03/15 02:12:17;;;;;;;17.40;9.68;;;3.00;99.90;;;;;;5092675;28;20543;-75
2022/03/15 02:14:42;;;;;;;20.48;10.27;;;3.00;99.90;;;;;;5093819;28;20139;-73
2022/03/15 02:17:08;;;;;;;23.60;9.95;;;2.90;99.90;;;;;;5093612;28;20055;-73
2022/03/15 02:19:36;;;;;;;20.02;10.13;;;2.90;99.90;;;;;;5093650;28;20137;-74
2022/03/15 02:22:01;;;;;;;17.90;9.70;;;2.90;99.90;;;;;;5093680;28;20070;-74
2022/03/15 02:24:27;;;;;;;20.85;9.50;;;2.90;99.90;;;;;;5092552;28;20430;-74
2022/03/15 02:26:53;;;;;;;18.38;8.60;;;2.90;99.90;;;;;;5093079;28;20051;-74
2022/03/15 02:29:22;;;;;;;18.88;9.10;;;2.90;99.90;;;;;;5093525;28;20130;-74
2022/03/15 02:31:48;;;;;;;22.10;8.88;;;2.60;99.90;;;;;;5093616;28;20496;-74
2022/03/15 02:34:16;;;;;;;18.05;9.13;;;2.80;99.90;;;;;;5093174;28;20399;-74
2022/03/15 02:36:43;;;;;;;16.33;9.43;;;2.80;99.90;;;;;;5093426;28;20067;-74
2022/03/15 02:39:08;;;;;;;25.50;10.10;;;2.80;99.90;;;;;;5093460;28;20052;-75
2022/03/15 02:41:34;;;;;;;22.00;9.95;;;2.80;99.90;;;;;;5093344;28;20157;-74
2022/03/15 02:44:00;;;;;;;16.95;9.90;;;2.80;99.90;;;;;;5093705;28;20040;-74
2022/03/15 02:46:33;;;;;;;20.50;9.93;;;2.80;99.90;;;;;;5093469;28;20499;-74
2022/03/15 02:48:58;;;;;;;20.13;10.70;;;2.80;99.90;;;;;;5093485;28;20052;-74
2022/03/15 02:51:25;;;;;;;17.85;9.93;;;2.80;99.90;;;;;;5093252;28;20372;-75
2022/03/15 02:53:53;;;;;;;17.20;9.57;;;2.70;99.90;;;;;;5092384;28;20106;-74
2022/03/15 02:56:18;;;;;;;21.70;10.15;;;2.70;99.90;;;;;;5093192;28;20298;-74
2022/03/15 02:58:44;;;;;;;22.75;9.98;;;2.60;99.90;;;;;;5096810;28;20048;-74
2022/03/15 03:01:10;;;;;;;18.30;9.52;;;2.60;99.90;;;;;;5095861;28;20123;-74
2022/03/15 03:03:37;;;;;;;20.80;10.55;;;2.60;99.90;;;;;;5097178;28;20051;-74
2022/03/15 03:06:03;;;;;;;18.92;10.15;;;2.60;99.90;;;;;;5096572;28;20044;-73
2022/03/15 03:08:30;;;;;;;19.20;9.85;;;2.60;99.90;;;;;;5096796;28;20048;-74
2022/03/15 03:10:57;;;;;;;25.08;10.75;;;2.60;99.90;;;;;;5097130;28;20097;-76
2022/03/15 03:13:26;;;;;;;20.95;10.45;;;2.60;99.90;;;;;;5096671;28;20109;-75
2022/03/15 03:15:57;;;;;;;25.00;10.10;;;2.60;99.90;;;;;;5096701;28;20052;-74
2022/03/15 03:18:33;;;;;;;23.23;10.25;;;2.60;99.90;;;;;;5096658;28;20093;-74
2022/03/15 03:21:01;;;;;;;25.70;9.05;;;2.60;99.90;;;;;;5097410;28;20050;-75
2022/03/15 03:23:27;;;;;;;;;;;2.60;99.90;;;;;;5097019;28;20059;-74
2022/03/15 03:25:54;;;;;;;18.52;9.27;;;2.60;99.90;;;;;;5096001;28;20025;-75
2022/03/15 03:28:19;;;;;;;22.00;9.40;;;2.60;99.90;;;;;;5096481;28;20052;-75
2022/03/15 03:30:46;;;;;;;20.35;9.30;;;2.60;99.90;;;;;;5095533;28;20337;-74
2022/03/15 03:33:14;;;;;;;24.50;10.40;;;2.60;99.90;;;;;;5096177;28;20048;-75
2022/03/15 03:35:39;;;;;;;22.95;9.18;;;2.60;99.90;;;;;;5096249;28;20047;-74
2022/03/15 03:38:05;;;;;;;20.65;9.93;;;2.60;99.90;;;;;;5096344;28;20453;-74
2022/03/15 03:40:31;;;;;;;17.45;9.77;;;2.60;99.90;;;;;;5096251;28;20062;-74
2022/03/15 03:42:57;;;;;;;22.15;10.10;;;2.60;99.90;;;;;;5096261;28;20495;-74
2022/03/15 03:45:23;;;;;;;21.98;10.15;;;2.60;99.90;;;;;;5096083;28;20036;-75
2022/03/15 03:47:51;;;;;;;20.75;11.02;;;2.50;99.90;;;;;;5095218;28;20084;-74
2022/03/15 03:50:18;;;;;;;25.80;11.05;;;2.60;99.90;;;;;;5094890;28;20123;-74
2022/03/15 03:52:43;;;;;;;19.05;10.23;;;2.70;99.90;;;;;;5096022;28;20048;-74
2022/03/15 03:55:09;;;;;;;23.10;10.63;;;2.70;99.90;;;;;;5095881;28;20047;-75
2022/03/15 03:57:35;;;;;;;20.65;10.40;;;2.70;99.90;;;;;;5095918;28;20075;-74
2022/03/15 04:00:01;;;;;;;19.48;10.77;;;2.80;99.90;;;;;;5095871;28;20093;-75
2022/03/15 04:02:27;;;;;;;23.52;11.98;;;2.80;99.90;;;;;;5095846;28;20126;-74
2022/03/15 04:04:54;;;;;;;25.67;10.13;;;2.80;99.90;;;;;;5095703;28;20075;-74
2022/03/15 04:07:20;;;;;;;28.65;13.52;;;2.80;99.90;;;;;;5095755;28;20040;-74
2022/03/15 04:09:46;;;;;;;22.33;11.10;;;2.90;99.90;;;;;;5095647;28;20123;-74
2022/03/15 04:12:12;;;;;;;23.70;11.70;;;2.90;99.90;;;;;;5095703;28;20489;-74
2022/03/15 04:14:38;;;;;;;29.48;12.48;;;3.00;99.90;;;;;;5094305;28;20056;-74
2022/03/15 04:17:04;;;;;;;22.88;12.70;;;3.00;99.90;;;;;;5094314;28;20051;-74
2022/03/15 04:19:30;;;;;;;26.70;12.73;;;3.00;99.90;;;;;;5095418;28;20149;-73
2022/03/15 04:21:55;;;;;;;29.02;13.52;;;3.10;99.90;;;;;;5094440;28;20515;-74
2022/03/15 04:24:21;;;;;;;21.70;12.25;;;3.10;99.90;;;;;;5095130;28;20055;-73
2022/03/15 04:26:47;;;;;;;28.52;13.13;;;3.20;99.90;;;;;;5095404;28;20044;-75
2022/03/15 04:29:13;;;;;;;28.27;13.18;;;3.20;99.90;;;;;;5094673;28;20403;-74
2022/03/15 04:31:39;;;;;;;24.92;14.13;;;3.20;99.90;;;;;;5094214;28;20131;-75
2022/03/15 04:34:05;;;;;;;29.42;13.60;;;3.30;99.90;;;;;;5095163;28;20043;-75
2022/03/15 04:36:31;;;;;;;23.70;13.55;;;3.30;99.90;;;;;;5095247;28;20040;-74
2022/03/15 04:38:57;;;;;;;30.45;13.70;;;3.40;99.90;;;;;;5094220;28;20444;-74
2022/03/15 04:41:23;;;;;;;25.83;13.38;;;3.70;99.90;;;;;;5095162;28;20043;-74
2022/03/15 04:43:49;;;;;;;31.55;16.13;;;3.40;99.90;;;;;;5094806;28;20054;-74
2022/03/15 04:46:14;;;;;;;37.55;15.98;;;3.50;99.90;;;;;;5094991;28;20047;-75
2022/03/15 04:48:40;;;;;;;40.67;17.88;;;3.50;99.90;;;;;;5094958;28;20044;-75
2022/03/15 04:51:06;;;;;;;38.67;16.92;;;4.00;99.90;;;;;;5077264;28;20472;-74
2022/03/15 04:53:31;;;;;;;40.70;18.23;;;3.60;99.90;;;;;;5094802;28;20052;-75
2022/03/15 04:55:57;;;;;;;44.80;19.73;;;3.60;99.90;;;;;;5094677;28;20043;-74
2022/03/15 04:58:23;;;;;;;39.63;20.15;;;3.60;99.90;;;;;;5094703;28;20047;-74
2022/03/15 05:00:49;;;;;;;40.87;21.07;;;3.70;99.90;;;;;;5094795;28;20040;-75
2022/03/15 05:03:16;;;;;;;50.03;22.27;;;3.70;99.90;;;;;;5093580;28;20120;-75
2022/03/15 05:05:45;;;;;;;53.03;23.08;;;3.80;99.90;;;;;;5093711;28;20129;-75
2022/03/15 05:08:11;;;;;;;54.03;24.90;;;3.80;99.90;;;;;;5094842;28;20047;-74
2022/03/15 05:13:21;;;;;;;56.05;25.92;;;3.90;99.90;;;;;;5094248;28;20060;-75
2022/03/15 05:15:49;;;;;;;61.45;25.80;;;4.00;99.90;;;;;;5094378;28;20396;-75
2022/03/15 05:18:15;;;;;;;54.00;24.98;;;4.10;99.90;;;;;;5093676;28;20047;-74
2022/03/15 05:20:40;;;;;;;59.72;26.20;;;4.10;99.90;;;;;;5094251;28;20473;-74
2022/03/15 05:23:06;;;;;;;57.25;24.75;;;4.10;99.90;;;;;;5094369;28;20048;-74
2022/03/15 05:25:31;;;;;;;59.20;26.02;;;4.20;99.90;;;;;;5094211;28;20475;-73
2022/03/15 05:27:57;;;;;;;61.30;26.33;;;4.20;99.90;;;;;;5094371;28;20036;-74
2022/03/15 05:30:23;;;;;;;61.47;27.05;;;4.20;99.90;;;;;;5092944;28;20441;-74
2022/03/15 05:32:49;;;;;;;60.88;25.55;;;4.30;99.90;;;;;;5094658;28;20392;-74
2022/03/15 05:35:15;;;;;;;55.15;25.92;;;4.30;99.90;;;;;;5094125;28;20061;-73
2022/03/15 05:37:41;;;;;;;64.87;26.80;;;4.40;99.90;;;;;;5094083;28;20123;-74
2022/03/15 05:40:08;;;;;;;72.65;28.00;;;4.40;99.90;;;;;;5094506;28;20131;-74
2022/03/15 05:42:33;;;;;;;66.80;27.65;;;4.50;99.90;;;;;;5094037;28;20403;-75
2022/03/15 05:44:59;;;;;;;59.95;28.38;;;4.50;99.90;;;;;;5093817;28;20122;-74
2022/03/15 05:47:25;;;;;;;56.10;26.50;;;4.50;99.90;;;;;;5093595;28;20130;-74
2022/03/15 05:49:50;;;;;;;65.32;29.00;;;4.50;99.90;;;;;;5092920;28;20048;-74
2022/03/15 05:52:16;;;;;;;66.40;30.35;;;4.60;99.90;;;;;;5093754;28;20040;-74
2022/03/15 05:54:42;;;;;;;68.55;29.70;;;4.60;99.90;;;;;;5093906;28;20131;-74
2022/03/15 05:57:08;;;;;;;55.70;27.05;;;4.60;99.90;;;;;;5093609;28;20488;-74
2022/03/15 05:59:33;;;;;;;63.88;28.30;;;4.70;99.90;;;;;;5093682;28;20048;-75
2022/03/15 06:01:59;;;;;;;50.58;25.35;;;4.70;99.90;;;;;;5092796;28;20040;-76
2022/03/15 06:04:26;;;;;;;56.10;26.05;;;4.70;99.90;;;;;;5093708;28;20051;-75
2022/03/15 06:06:55;;;;;;;62.50;26.65;;;4.80;99.90;;;;;;5092769;28;20385;-75
2022/03/15 06:09:23;;;;;;;61.65;26.92;;;4.80;99.90;;;;;;5093650;28;20040;-75
2022/03/15 06:11:49;;;;;;;50.85;26.55;;;4.80;99.90;;;;;;5093487;28;20055;-75
2022/03/15 06:14:14;;;;;;;51.55;25.77;;;4.80;99.90;;;;;;5092342;28;20052;-73
2022/03/15 06:16:40;;;;;;;53.85;25.20;;;4.80;99.90;;;;;;5093495;28;20044;-75
2022/03/15 06:19:06;;;;;;;52.15;24.88;;;4.90;99.90;;;;;;5092368;28;20127;-73
2022/03/15 06:21:31;;;;;;;52.42;24.25;;;4.90;99.90;;;;;;5093556;28;20054;-74
2022/03/15 06:23:57;;;;;;;57.00;25.42;;;4.90;99.90;;;;;;5093355;28;20044;-73
2022/03/15 06:26:23;;;;;;;50.17;24.52;;;4.90;99.90;;;;;;5093612;28;20042;-74
2022/03/15 06:28:48;;;;;;;49.30;25.00;;;4.90;99.90;;;;;;5093459;28;20040;-74
2022/03/15 06:31:14;;;;;;;54.40;24.95;;;5.00;99.90;;;;;;5093523;28;20490;-75
2022/03/15 06:33:42;;;;;;;45.75;24.88;;;5.00;99.90;;;;;;5097829;28;20044;-74
2022/03/15 06:36:09;;;;;;;52.25;24.75;;;5.00;99.90;;;;;;5097804;28;20040;-75
2022/03/15 06:38:34;;;;;;;47.03;24.05;;;5.00;99.90;;;;;;5097450;28;20067;-76
2022/03/15 06:41:00;;;;;;;49.85;26.05;;;5.00;99.90;;;;;;5097321;28;20060;-75
2022/03/15 06:43:26;;;;;;;48.67;23.52;;;5.10;99.90;;;;;;5096190;28;20050;-74
2022/03/15 06:45:51;;;;;;;50.05;24.73;;;5.10;99.90;;;;;;5097250;28;20044;-74
2022/03/15 06:48:17;;;;;;;53.22;23.88;;;5.10;99.90;;;;;;5097287;28;20048;-75
2022/03/15 06:50:43;;;;;;;46.03;23.92;;;5.20;99.90;;;;;;5097178;28;20050;-75
2022/03/15 06:53:08;;;;;;;50.30;25.40;;;5.20;99.90;;;;;;5096955;28;20036;-75
2022/03/15 06:55:34;;;;;;;44.20;23.63;;;5.20;99.90;;;;;;5097117;28;20047;-76
2022/03/15 06:58:00;;;;;;;45.78;23.75;;;5.20;99.90;;;;;;5096008;28;20488;-76
2022/03/15 07:00:26;;;;;;;49.97;25.00;;;5.30;99.90;;;;;;5096946;28;20373;-75
2022/03/15 07:02:52;;;;;;;47.42;23.08;;;5.30;99.90;;;;;;5097052;28;20078;-76
2022/03/15 07:05:17;;;;;;;44.85;22.88;;;5.30;99.90;;;;;;5096935;28;20048;-74
2022/03/15 07:07:43;;;;;;;41.55;22.80;;;5.30;99.90;;;;;;5095765;28;20043;-72
2022/03/15 07:10:10;;;;;;;42.80;23.35;;;5.40;99.90;;;;;;5096841;28;20040;-73
2022/03/15 07:12:37;;;;;;;40.60;22.23;;;5.40;99.90;;;;;;5096839;28;20055;-76
2022/03/15 07:15:04;;;;;;;41.47;22.92;;;5.40;99.90;;;;;;5096950;28;20063;-75
2022/03/15 07:17:30;;;;;;;41.00;23.35;;;5.50;99.90;;;;;;5096629;28;20040;-78
2022/03/15 07:19:57;;;;;;;48.80;24.30;;;5.50;99.90;;;;;;5095424;28;20040;-75
2022/03/15 07:22:24;;;;;;;46.63;23.20;;;5.50;99.90;;;;;;5096695;28;20059;-75
2022/03/15 07:24:51;;;;;;;41.80;23.75;;;5.50;99.90;;;;;;5096392;28;20396;-76
2022/03/15 07:27:17;;;;;;;;;;;5.60;99.90;;;;;;5097241;28;20043;-75
2022/03/15 07:29:42;;;;;;;37.90;21.23;;;5.60;99.90;;;;;;5095373;28;19930;-74
2022/03/15 07:32:08;;;;;;;40.30;23.02;;;5.60;99.90;;;;;;5096454;28;20051;-74
2022/03/15 07:34:33;;;;;;;42.47;21.90;;;5.70;99.90;;;;;;5096443;28;20491;-74
2022/03/15 07:36:59;;;;;;;41.28;22.63;;;5.70;99.90;;;;;;5096648;28;20036;-72
2022/03/15 07:39:24;;;;;;;40.13;22.48;;;5.70;99.90;;;;;;5095265;28;20059;-75
2022/03/15 07:41:51;;;;;;;44.95;21.80;;;5.80;99.90;;;;;;5096396;28;20519;-76
2022/03/15 07:44:17;;;;;;;47.78;24.77;;;5.80;99.90;;;;;;5095767;28;20040;-74
2022/03/15 07:46:48;;;;;;;47.40;23.90;;;5.90;99.90;;;;;;5096091;28;20504;-75
2022/03/15 07:49:18;;;;;;;46.30;24.90;;;5.90;99.90;;;;;;5095904;28;20384;-73
2022/03/15 07:51:45;;;;;;;43.22;23.48;;;5.90;99.90;;;;;;5096068;28;20044;-74
2022/03/15 07:54:11;;;;;;;40.40;22.60;;;5.90;99.90;;;;;;5095993;28;20048;-73
2022/03/15 07:56:39;;;;;;;45.38;24.58;;;6.00;99.90;;;;;;5078213;28;20043;-75
2022/03/15 07:59:05;;;;;;;42.85;24.58;;;6.00;99.90;;;;;;5095877;28;20055;-75
2022/03/15 08:01:31;;;;;;;39.90;23.10;;;6.00;99.90;;;;;;5096353;28;20396;-76
2022/03/15 08:03:57;;;;;;;38.95;22.70;;;6.00;99.90;;;;;;5095835;28;20059;-76
2022/03/15 08:06:23;;;;;;;40.35;22.52;;;6.10;99.90;;;;;;5094471;28;20040;-74
2022/03/15 08:08:49;;;;;;;40.72;23.25;;;6.10;99.90;;;;;;5095486;28;20129;-75
2022/03/15 08:11:15;;;;;;;40.40;23.00;;;6.10;99.90;;;;;;5095641;28;20106;-76
2022/03/15 08:13:41;;;;;;;37.05;22.67;;;6.20;99.90;;;;;;5095598;28;20102;-75
2022/03/15 08:16:07;;;;;;;39.17;24.05;;;6.20;99.90;;;;;;5095484;28;20141;-76
2022/03/15 08:18:33;;;;;;;37.17;22.83;;;6.20;99.90;;;;;;5095611;28;20500;-74
2022/03/15 08:20:59;;;;;;;37.70;21.88;;;6.20;99.90;;;;;;5094347;28;20048;-76
2022/03/15 08:23:28;;;;;;;37.63;23.27;;;6.20;99.90;;;;;;5095454;28;20040;-75
2022/03/15 08:25:58;;;;;;;38.97;22.83;;;6.30;99.90;;;;;;5095007;28;20491;-75
2022/03/15 08:28:25;;;;;;;37.58;22.98;;;6.30;99.90;;;;;;5095315;28;20048;-75
2022/03/15 08:30:52;;;;;;;35.72;22.38;;;6.30;99.90;;;;;;5094336;28;20052;-76
2022/03/15 08:33:18;;;;;;;36.63;21.90;;;6.30;99.90;;;;;;5095512;28;20047;-75
2022/03/15 08:35:44;;;;;;;39.85;22.60;;;6.40;99.90;;;;;;5095306;28;20059;-77
2022/03/15 08:38:11;;;;;;;39.05;22.02;;;6.40;99.90;;;;;;5095324;28;20044;-75
2022/03/15 08:40:37;;;;;;;37.60;22.58;;;6.40;99.90;;;;;;5095156;28;20048;-76
2022/03/15 08:43:03;;;;;;;40.17;22.73;;;6.50;99.90;;;;;;5095397;28;20044;-76
2022/03/15 08:45:29;;;;;;;39.05;23.15;;;6.50;99.90;;;;;;5095043;28;20036;-75
2022/03/15 08:47:55;;;;;;;44.53;22.75;;;6.60;99.90;;;;;;5095052;28;20402;-76
2022/03/15 08:50:20;;;;;;;37.05;23.25;;;6.60;99.90;;;;;;5095203;28;20051;-77
2022/03/15 08:52:48;;;;;;;40.38;23.45;;;6.70;99.90;;;;;;5095096;28;20036;-77
2022/03/15 08:55:14;;;;;;;40.03;22.67;;;6.70;99.90;;;;;;5094028;28;20047;-76
2022/03/15 08:57:39;;;;;;;35.60;22.50;;;6.80;99.90;;;;;;5094568;28;20045;-76
2022/03/15 09:00:07;;;;;;;37.40;24.05;;;6.90;99.90;;;;;;5094693;28;20496;-75
2022/03/15 09:02:34;;;;;;;42.40;25.52;;;6.90;99.90;;;;;;5093793;28;20058;-76
2022/03/15 09:05:00;;;;;;;38.42;23.30;;;7.00;99.90;;;;;;5094579;28;20050;-74
2022/03/15 09:07:27;;;;;;;38.35;23.48;;;7.10;99.90;;;;;;5093375;28;20051;-74
2022/03/15 09:09:53;;;;;;;;;;;7.10;99.90;;;;;;5094993;28;20113;-73
2022/03/15 09:12:18;;;;;;;36.58;22.80;;;7.20;99.90;;;;;;5094710;28;19920;-73
2022/03/15 09:14:44;;;;;;;38.92;22.92;;;7.20;99.90;;;;;;5094685;28;20515;-74
2022/03/15 09:17:10;;;;;;;37.45;21.52;;;7.30;99.90;;;;;;5094768;28;20094;-78
2022/03/15 09:19:36;;;;;;;38.28;23.70;;;7.30;99.90;;;;;;5093199;28;20058;-74
2022/03/15 09:22:04;;;;;;;33.47;22.97;;;7.30;99.90;;;;;;5094355;28;20048;-75
2022/03/15 09:24:31;;;;;;;44.92;24.65;;;7.40;99.90;;;;;;5094316;28;20278;-76
2022/03/15 09:26:56;;;;;;;40.10;22.67;;;7.40;99.90;;;;;;5094203;28;20091;-76
2022/03/15 09:29:22;;;;;;;35.80;21.77;;;7.50;99.90;;;;;;5094344;28;20079;-74
2022/03/15 09:31:49;;;;;;;42.00;23.20;;;7.50;99.90;;;;;;5094153;28;20040;-74
2022/03/15 09:34:17;;;;;;;37.13;22.25;;;7.50;99.90;;;;;;5094227;28;20067;-73
2022/03/15 09:36:44;;;;;;;40.75;23.67;;;7.50;99.90;;;;;;5094104;28;20044;-74
2022/03/15 09:39:10;;;;;;;37.85;21.58;;;7.60;99.90;;;;;;5094066;28;20052;-74
2022/03/15 09:41:40;;;;;;;34.53;20.60;;;7.60;99.90;;;;;;5093865;28;20568;-74
2022/03/15 09:44:10;;;;;;;33.33;21.15;;;7.60;99.90;;;;;;5094316;28;20481;-74
2022/03/15 09:47:00;;;;;;;36.00;21.40;;;7.70;99.90;;;;;;5093063;28;20084;-74
2022/03/15 09:49:26;;;;;;;32.30;20.15;;;7.70;99.90;;;;;;5094086;28;20400;-74
2022/03/15 09:51:55;;;;;;;37.23;20.47;;;7.80;99.90;;;;;;5093862;28;20044;-73
2022/03/15 09:54:22;;;;;;;38.40;20.95;;;7.80;99.90;;;;;;5093979;28;20098;-75
2022/03/15 09:56:49;;;;;;;;;;;7.80;99.90;;;;;;5094253;28;20435;-75
2022/03/15 09:59:20;;;;;;;40.92;22.88;;;7.90;99.90;;;;;;5092939;28;20038;-76
2022/03/15 10:01:53;;;;;;;41.80;21.42;;;7.90;99.90;;;;;;5092623;28;20127;-76
2022/03/15 10:04:20;;;;;;;34.90;20.88;;;8.00;99.90;;;;;;5093933;28;20396;-76
2022/03/15 10:06:47;;;;;;;31.45;19.70;;;8.10;99.90;;;;;;5092337;28;20048;-76
2022/03/15 10:09:14;;;;;;;36.40;20.15;;;8.10;99.90;;;;;;5093529;28;20048;-77
2022/03/15 10:11:41;;;;;;;34.92;21.13;;;8.20;99.90;;;;;;5076172;28;20036;-76
2022/03/15 10:14:08;;;;;;;31.65;19.20;;;8.30;99.90;;;;;;5093698;28;20060;-75
2022/03/15 10:16:43;;;;;;;;;;;8.40;99.90;;;;;;5094005;28;20040;-75
2022/03/15 10:19:14;;;;;;;29.42;17.55;;;8.50;99.90;;;;;;5093745;28;19972;-76
2022/03/15 10:21:53;;;;;;;31.70;18.48;;;8.50;99.90;;;;;;5093516;28;20199;-74
2022/03/15 10:24:22;;;;;;;29.10;18.38;;;8.60;99.90;;;;;;5093499;28;20044;-74
2022/03/15 10:26:49;;;;;;;28.20;18.63;;;8.70;99.90;;;;;;5092587;28;20131;-74
2022/03/15 10:29:16;;;;;;;29.52;17.58;;;8.80;99.90;;;;;;5093161;28;20040;-74
2022/03/15 10:31:43;;;;;;;33.17;18.95;;;8.90;99.90;;;;;;5093242;28;20044;-74
2022/03/15 10:34:10;;;;;;;31.95;18.00;;;9.00;99.90;;;;;;5093311;28;20052;-74
2022/03/15 10:36:42;;;;;;;29.90;18.60;;;9.00;99.90;;;;;;5092131;28;20051;-74
2022/03/15 10:39:10;;;;;;;33.90;18.33;;;9.10;99.90;;;;;;5093370;28;20048;-74
2022/03/15 10:41:42;;;;;;;26.40;18.33;;;9.20;99.90;;;;;;5093597;28;20055;-74
2022/03/15 10:44:21;;;;;;;38.95;19.88;;;9.20;99.90;;;;;;5091982;28;20100;-75
2022/03/15 10:47:02;;;;;;;32.80;19.02;;;9.20;99.90;;;;;;5092179;28;20051;-74
2022/03/15 10:49:29;;;;;;;28.67;17.45;;;9.30;99.90;;;;;;5094748;28;20058;-73
2022/03/15 10:51:55;;;;;;;35.58;19.70;;;9.30;99.90;;;;;;5095371;28;20051;-72
2022/03/15 10:54:26;;;;;;;32.45;17.95;;;9.30;99.90;;;;;;5111736;28;20036;-75
2022/03/15 10:56:59;;;;;;;29.23;16.95;;;9.40;99.90;;;;;;5095842;28;20062;-74
2022/03/15 10:59:26;;;;;;;26.40;16.42;;;9.40;99.90;;;;;;5104065;28;20044;-72
2022/03/15 11:01:52;;;;;;;24.08;16.83;;;9.50;99.90;;;;;;5093915;28;20048;-75
2022/03/15 11:04:20;;;;;;;27.00;17.58;;;9.50;99.90;;;;;;5093595;28;20097;-76
2022/03/15 11:06:51;;;;;;;27.85;16.75;;;9.60;99.90;;;;;;5093151;28;20438;-75
2022/03/15 11:09:32;;;;;;;31.42;17.83;;;9.70;99.90;;;;;;5093403;28;20090;-75
2022/03/15 11:12:04;;;;;;;25.42;17.17;;;9.70;99.90;;;;;;5094383;28;20395;-74
2022/03/15 11:14:54;;;;;;;25.35;16.30;;;9.90;99.90;;;;;;5093189;28;20138;-74
2022/03/15 11:17:25;;;;;;;25.33;16.10;;;9.90;99.90;;;;;;5092976;28;20044;-74
2022/03/15 11:19:57;;;;;;;27.05;17.52;;;10.00;99.90;;;;;;5096603;28;20055;-74
2022/03/15 11:22:26;;;;;;;27.65;16.05;;;10.10;99.90;;;;;;5096226;28;20442;-73
2022/03/15 11:25:04;;;;;;;26.13;17.38;;;10.20;99.90;;;;;;5097124;28;20048;-73
2022/03/15 11:27:36;;;;;;;25.75;17.20;;;10.20;99.90;;;;;;5096416;28;20055;-73
2022/03/15 11:30:05;;;;;;;27.35;16.63;;;10.30;99.90;;;;;;5096118;28;20052;-74
2022/03/15 11:32:33;;;;;;;24.95;15.13;;;10.40;99.90;;;;;;5096272;28;20100;-74
2022/03/15 11:34:59;;;;;;;23.95;15.52;;;10.50;99.90;;;;;;5096230;28;20097;-74
2022/03/15 11:37:24;;;;;;;25.50;16.13;;;10.60;99.90;;;;;;5096150;28;20040;-75
2022/03/15 11:39:52;;;;;;;25.80;15.77;;;10.60;99.90;;;;;;5105764;28;20044;-74
2022/03/15 11:42:18;;;;;;;22.60;15.20;;;10.60;99.90;;;;;;5095959;28;20052;-73
2022/03/15 11:44:59;;;;;;;23.75;14.32;;;10.70;99.90;;;;;;5094748;28;20078;-75
2022/03/15 11:47:47;;;;;;;23.67;14.45;;;10.80;99.90;;;;;;5094862;28;20480;-75
2022/03/15 11:50:52;;;;;;;23.02;14.25;;;10.80;99.90;;;;;;5096026;28;20082;-75
2022/03/15 11:53:36;;;;;;;21.30;13.95;;;10.80;99.90;;;;;;5095891;28;20083;-76
2022/03/15 11:56:10;;;;;;;24.65;14.95;;;10.80;99.90;;;;;;5094788;28;20087;-75
2022/03/15 11:58:35;;;;;;;22.75;15.05;;;10.80;99.90;;;;;;5094786;28;20088;-74
2022/03/15 12:01:12;;;;;;;25.73;14.85;;;10.80;99.90;;;;;;5095821;28;20488;-74
2022/03/15 12:03:54;;;;;;;26.50;15.13;;;10.90;99.90;;;;;;5095430;28;20051;-74
2022/03/15 12:06:28;;;;;;;27.85;15.98;;;11.00;99.90;;;;;;5095491;28;20271;-76
2022/03/15 12:08:59;;;;;;;25.85;16.65;;;11.00;99.90;;;;;;5095618;28;20048;-75
2022/03/15 12:11:28;;;;;;;26.33;15.40;;;11.10;99.90;;;;;;5095616;28;20053;-76
2022/03/15 12:14:16;;;;;;;23.02;14.63;;;11.10;99.90;;;;;;5095022;28;20060;-75
2022/03/15 12:16:47;;;;;;;24.67;14.60;;;11.10;99.90;;;;;;5095460;28;20052;-76
2022/03/15 12:21:58;;;;;;;23.60;13.20;;;11.30;99.90;;;;;;5095495;28;20113;-76
2022/03/15 12:24:33;;;;;;;21.90;13.10;;;11.20;99.90;;;;;;5094226;28;20040;-76
2022/03/15 12:27:04;;;;;;;24.50;12.52;;;11.40;99.90;;;;;;5094880;28;20036;-74
2022/03/15 12:29:31;;;;;;;18.85;12.02;;;11.50;99.90;;;;;;5093093;28;20476;-74
2022/03/15 12:32:08;;;;;;;22.53;12.50;;;11.50;99.90;;;;;;5095280;28;20498;-76
2022/03/15 12:34:34;;;;;;;21.92;12.55;;;11.60;99.90;;;;;;5093902;28;20285;-77
2022/03/15 12:37:00;;;;;;;19.88;11.43;;;11.70;99.90;;;;;;5094934;28;20048;-74
2022/03/15 12:39:33;;;;;;;25.77;11.90;;;11.70;99.90;;;;;;5095060;28;20126;-75
2022/03/15 12:42:15;;;;;;;21.40;12.80;;;11.80;99.90;;;;;;5094791;28;20044;-74
2022/03/15 12:44:48;;;;;;;19.02;12.40;;;11.80;99.90;;;;;;5093663;28;20032;-74
2022/03/15 12:47:19;;;;;;;21.60;12.23;;;11.90;99.90;;;;;;5093904;28;20392;-75